Time;durP1;ratioP1;P1;durP2;ratioP2;P2;SDS_P1;SDS_P2;PMS_P1;PMS_P2;Temp;Humidity;BMP_temperature;BMP_pressure;BME280_temperature;BME280_humidity;BME280_pressure;Samples;Min_cycle;Max_cycle;Signal;HPM_P1;HPM_P2
2022/04/20 02:43:30;;;;;;;17.67;12.45;;;;;;;5.15;78.42;98835.93;1822456;78;22971;-37
2022/04/20 02:45:56;;;;;;;20.62;12.47;;;;;;;5.05;78.92;98830.69;1794706;80;20987;-37
2022/04/20 02:48:22;;;;;;;17.23;12.00;;;;;;;5.08;79.33;98834.48;1794821;80;21026;-37
2022/04/20 02:50:48;;;;;;;15.43;11.38;;;;;;;5.02;82.15;98828.19;1794734;80;20963;-35
2022/04/20 02:53:14;;;;;;;17.07;10.82;;;;;;;5.09;78.37;98827.87;1794747;80;21013;-37
2022/04/20 02:55:42;;;;;;;13.03;10.03;;;;;;;5.09;79.50;98830.48;1794727;80;20994;-36
2022/04/20 02:58:08;;;;;;;17.40;10.28;;;;;;;5.04;80.42;98827.23;1794713;80;21431;-36
2022/04/20 03:00:36;;;;;;;15.28;10.30;;;;;;;4.99;83.26;98828.71;1794683;80;20967;-38
2022/04/20 03:03:02;;;;;;;13.95;10.00;;;;;;;4.98;84.71;98827.03;1794835;80;20995;-36
2022/04/20 03:05:27;;;;;;;13.60;8.75;;;;;;;4.94;83.61;98824.12;1795011;80;20991;-42
2022/04/20 03:07:53;;;;;;;13.83;9.43;;;;;;;5.06;81.20;98824.55;1794706;80;21010;-37
2022/04/20 03:10:19;;;;;;;12.88;8.10;;;;;;;5.10;80.91;98831.35;1794827;80;21014;-35
2022/04/20 03:12:44;;;;;;;14.35;8.48;;;;;;;5.11;81.37;98821.30;1794743;80;20966;-37
2022/04/20 03:15:10;;;;;;;14.45;8.65;;;;;;;5.09;81.97;98824.43;1794695;80;21025;-35
2022/04/20 03:17:36;;;;;;;14.87;8.25;;;;;;;5.13;81.15;98816.44;1794851;80;21538;-37
2022/04/20 03:20:02;;;;;;;12.03;8.53;;;;;;;5.03;83.79;98816.41;1794807;80;20991;-35
2022/04/20 03:22:28;;;;;;;16.62;9.08;;;;;;;5.17;81.89;98813.25;1794813;80;20967;-36
2022/04/20 03:24:54;;;;;;;11.53;8.88;;;;;;;5.13;82.67;98807.31;1794746;80;20983;-36
2022/04/20 03:27:21;;;;;;;10.90;8.45;;;;;;;5.18;80.50;98804.07;1794699;79;20975;-36
2022/04/20 03:29:47;;;;;;;16.40;9.80;;;;;;;5.14;84.37;98802.48;1794696;80;21030;-36
2022/04/20 03:32:16;;;;;;;13.08;8.65;;;;;;;5.21;83.67;98797.87;1794766;80;21479;-36
2022/04/20 03:34:42;;;;;;;12.37;9.53;;;;;;;5.24;83.09;98786.02;1794701;80;21412;-37
2022/04/20 03:37:09;;;;;;;10.88;8.25;;;;;;;5.15;84.52;98791.16;1794826;80;21574;-36
2022/04/20 03:39:36;;;;;;;15.32;9.28;;;;;;;5.14;84.26;98789.91;1794856;80;21029;-35
2022/04/20 03:42:03;;;;;;;13.43;9.33;;;;;;;5.16;84.92;98790.69;1793239;80;21010;-36
2022/04/20 03:44:31;;;;;;;19.07;10.03;;;;;;;5.09;85.25;98791.39;1788475;80;21306;-36
2022/04/20 03:46:57;;;;;;;;;;;;;;;5.04;85.90;98795.09;1792004;80;21034;-35
2022/04/20 03:49:23;;;;;;;17.07;10.30;;;;;;;5.08;85.26;98792.78;1789313;80;20100;-35
2022/04/20 03:51:48;;;;;;;21.27;11.38;;;;;;;5.08;84.94;98784.96;1789297;80;21046;-36
2022/04/20 03:54:15;;;;;;;19.02;11.38;;;;;;;5.18;83.37;98791.47;1788883;80;21007;-41
2022/04/20 03:59:25;;;;;;;19.98;12.45;;;;;;;5.17;82.61;98781.51;1788862;80;20966;-37
2022/04/20 04:01:51;;;;;;;17.77;13.32;;;;;;;5.04;85.67;98776.85;1788716;80;20967;-36
2022/04/20 04:04:19;;;;;;;18.75;13.45;;;;;;;5.13;82.79;98782.98;1789114;80;21492;-34
2022/04/20 04:06:44;;;;;;;21.40;14.03;;;;;;;5.10;85.08;98780.53;1788900;80;20986;-36
2022/04/20 04:09:10;;;;;;;20.60;14.15;;;;;;;5.15;83.57;98785.10;1788683;80;20991;-35
2022/04/20 04:11:36;;;;;;;22.17;15.80;;;;;;;5.16;85.19;98786.78;1788739;80;20999;-36
2022/04/20 04:14:02;;;;;;;26.80;18.35;;;;;;;5.21;84.04;98784.00;1788877;80;20990;-36
2022/04/20 04:16:28;;;;;;;21.52;14.90;;;;;;;5.20;83.81;98780.52;1788756;80;21500;-38
2022/04/20 04:18:53;;;;;;;25.95;16.30;;;;;;;5.20;83.81;98780.52;1788729;80;20970;-38
2022/04/20 04:21:20;;;;;;;25.40;17.82;;;;;;;5.16;85.28;98778.50;1788819;80;20978;-36
2022/04/20 04:23:47;;;;;;;22.50;16.27;;;;;;;5.24;84.35;98782.11;1788967;80;20975;-36
2022/04/20 04:26:13;;;;;;;34.58;22.27;;;;;;;5.21;86.47;98774.41;1788730;80;21030;-38
2022/04/20 04:28:42;;;;;;;35.63;21.12;;;;;;;5.23;85.64;98772.58;1788736;80;21034;-38
2022/04/20 04:31:08;;;;;;;34.08;24.05;;;;;;;5.19;86.79;98780.14;1788711;80;21483;-38
2022/04/20 04:33:35;;;;;;;33.05;22.15;;;;;;;5.17;87.16;98776.76;1788750;80;20989;-38
2022/04/20 04:36:01;;;;;;;25.13;17.57;;;;;;;5.17;86.34;98774.16;1789016;80;21428;-36
2022/04/20 04:38:27;;;;;;;21.05;15.68;;;;;;;5.20;86.53;98766.19;1788993;80;21526;-36
2022/04/20 04:40:53;;;;;;;22.02;16.27;;;;;;;5.13;88.16;98766.91;1788812;80;20995;-37
2022/04/20 04:43:19;;;;;;;25.70;17.75;;;;;;;5.18;87.14;98761.06;1784693;80;20999;-37
2022/04/20 04:48:47;;;;;;;21.37;16.12;;;;;;;5.20;87.65;98762.27;1783185;80;21003;-37
2022/04/20 04:51:09;;;;;;;27.37;17.67;;;;;;;5.19;87.45;98760.59;1780946;80;20956;-36
2022/04/20 04:53:35;;;;;;;25.37;15.88;;;;;;;5.23;86.69;98761.31;1783297;80;20971;-36
2022/04/20 04:56:01;;;;;;;27.37;18.90;;;;;;;5.18;87.56;98759.76;1783467;80;21034;-36
2022/04/20 04:58:27;;;;;;;19.70;14.43;;;;;;;5.13;87.44;98755.62;1783237;80;21444;-37
2022/04/20 05:00:53;;;;;;;15.05;12.10;;;;;;;5.18;88.14;98751.06;1783169;80;21002;-37
2022/04/20 05:03:20;;;;;;;13.20;10.50;;;;;;;5.17;87.66;98749.39;1783112;80;20994;-36
2022/04/20 05:05:47;;;;;;;16.07;11.50;;;;;;;5.15;88.95;98742.09;1783391;80;21516;-37
2022/04/20 05:08:13;;;;;;;19.98;13.15;;;;;;;5.08;89.30;98738.05;1782524;80;20979;-37
2022/04/20 05:10:39;;;;;;;14.83;11.83;;;;;;;5.10;88.11;98734.45;1783198;80;20987;-37
2022/04/20 05:13:07;;;;;;;10.25;9.10;;;;;;;5.05;90.62;98727.74;1783236;80;21471;-36
2022/04/20 05:15:34;;;;;;;11.05;8.35;;;;;;;5.15;90.37;98729.06;1783198;80;20994;-36
2022/04/20 05:18:01;;;;;;;14.90;10.13;;;;;;;5.18;90.04;98715.45;1783398;80;20995;-38
2022/04/20 05:20:26;;;;;;;14.67;10.80;;;;;;;5.17;88.70;98711.13;1783529;80;21038;-37
2022/04/20 05:22:52;;;;;;;12.60;10.25;;;;;;;5.16;90.11;98714.64;1783197;80;21468;-35
2022/04/20 05:25:19;;;;;;;12.55;10.88;;;;;;;5.25;90.23;98708.66;1783218;80;20983;-37
2022/04/20 05:27:45;;;;;;;15.45;10.68;;;;;;;5.27;90.79;98707.66;1783192;80;20990;-38
2022/04/20 05:30:15;;;;;;;11.68;9.20;;;;;;;5.36;89.11;98713.78;1783272;80;20995;-36
2022/04/20 05:32:42;;;;;;;12.35;8.75;;;;;;;5.42;88.56;98707.91;1783126;80;21014;-36
2022/04/20 05:35:09;;;;;;;9.73;7.62;;;;;;;5.38;90.17;98702.86;1783387;80;21477;-37
2022/04/20 05:43:04;;;;;;;7.08;5.80;;;;;;;5.35;90.20;98702.98;1785910;80;21046;-37
2022/04/20 05:45:30;;;;;;;6.90;5.80;;;;;;;5.36;90.53;98701.20;1788714;80;21483;-36
2022/04/20 05:47:58;;;;;;;6.87;5.35;;;;;;;5.33;90.56;98704.81;1788676;80;21041;-37
2022/04/20 05:50:26;;;;;;;6.08;5.47;;;;;;;5.28;91.04;98688.52;1788667;80;20994;-37
2022/04/20 05:52:52;;;;;;;9.08;5.95;;;;;;;5.39;89.82;98695.41;1783556;80;20995;-36
2022/04/20 05:55:18;;;;;;;6.83;4.37;;;;;;;5.37;89.62;98694.62;1788640;80;20955;-37
2022/04/20 05:57:47;;;;;;;6.87;4.72;;;;;;;5.24;90.28;98683.48;1788658;80;20988;-37
2022/04/20 06:00:13;;;;;;;3.98;3.58;;;;;;;5.23;90.03;98689.16;1788442;80;20974;-36
2022/04/20 06:02:39;;;;;;;4.90;3.72;;;;;;;5.26;90.19;98687.73;1788766;80;20991;-35
2022/04/20 06:05:05;;;;;;;4.42;3.95;;;;;;;5.20;89.99;98690.59;1788709;80;21552;-36
2022/04/20 06:07:31;;;;;;;9.03;3.62;;;;;;;5.29;89.29;98690.19;1788640;80;21006;-37
2022/04/20 06:09:56;;;;;;;5.75;3.70;;;;;;;5.31;89.37;98687.09;1788626;80;20963;-36
2022/04/20 06:12:22;;;;;;;5.65;3.98;;;;;;;5.24;89.30;98686.96;1788750;80;20995;-36
2022/04/20 06:14:48;;;;;;;3.25;2.95;;;;;;;5.26;88.97;98691.65;1788744;80;21037;-36
2022/04/20 06:17:14;;;;;;;3.58;3.27;;;;;;;5.10;88.55;98688.01;1788706;80;21492;-37
2022/04/20 06:19:40;;;;;;;3.25;2.85;;;;;;;5.08;88.62;98685.46;1788677;80;21503;-35
2022/04/20 06:22:06;;;;;;;4.95;3.60;;;;;;;5.10;89.00;98688.01;1788616;80;21195;-38
2022/04/20 06:24:32;;;;;;;4.20;3.37;;;;;;;4.97;89.37;98683.77;1788635;80;21026;-36
2022/04/20 06:26:57;;;;;;;5.35;3.20;;;;;;;5.08;89.13;98685.46;1788742;80;20978;-40
2022/04/20 06:29:24;;;;;;;3.20;2.80;;;;;;;4.95;89.70;98686.91;1788675;80;21034;-36
2022/04/20 06:31:51;;;;;;;3.10;2.80;;;;;;;5.04;88.57;98683.03;1788719;80;21521;-36
2022/04/20 06:34:18;;;;;;;3.45;2.58;;;;;;;4.87;88.45;98678.08;1788865;80;20993;-37
2022/04/20 06:36:44;;;;;;;4.67;2.98;;;;;;;5.02;88.82;98677.05;1788789;80;21056;-36
2022/04/20 06:39:10;;;;;;;3.70;2.95;;;;;;;4.99;88.78;98684.55;1788633;80;21516;-36
2022/04/20 06:41:35;;;;;;;3.75;2.92;;;;;;;4.97;89.42;98671.58;1788757;80;20975;-37
2022/04/20 06:44:01;;;;;;;2.95;2.60;;;;;;;5.05;89.05;98674.32;1784264;80;21011;-39
2022/04/20 06:46:27;;;;;;;3.87;3.00;;;;;;;5.03;88.41;98669.63;1783122;80;20998;-37
2022/04/20 06:48:53;;;;;;;4.62;2.98;;;;;;;5.04;88.46;98664.36;1783133;80;21046;-38
2022/04/20 06:51:20;;;;;;;4.33;3.22;;;;;;;5.05;88.10;98663.89;1783182;80;20995;-37
2022/04/20 06:59:14;;;;;;;3.00;2.45;;;;;;;5.00;87.64;98662.34;1783118;80;21468;-38
2022/04/20 07:01:39;;;;;;;3.15;2.72;;;;;;;;;;1783081;80;20999;-36
2022/04/20 07:04:05;;;;;;;2.70;2.50;;;;;;;5.12;87.54;98661.42;1743201;82;20996;-37
2022/04/20 07:06:32;;;;;;;2.25;2.08;;;;;;;5.03;87.69;98664.42;1716971;83;21008;-37
2022/04/20 07:08:58;;;;;;;3.85;2.20;;;;;;;4.99;87.57;98661.94;1716981;83;21015;-36
2022/04/20 07:11:25;;;;;;;3.27;2.05;;;;;;;5.08;87.33;98662.47;1716980;83;21017;-38
2022/04/20 07:13:51;;;;;;;2.55;2.10;;;;;;;5.12;86.53;98660.95;1717127;83;21011;-35
2022/04/20 07:16:17;;;;;;;2.58;2.37;;;;;;;5.03;87.24;98656.60;1717014;83;21555;-36
2022/04/20 07:18:42;;;;;;;4.70;2.37;;;;;;;4.99;87.08;98658.49;1717052;83;21505;-38
2022/04/20 07:21:08;;;;;;;2.75;1.82;;;;;;;5.04;86.82;98656.98;1717019;83;21034;-36
2022/04/20 07:23:34;;;;;;;3.47;2.67;;;;;;;5.11;86.54;98658.41;1705130;84;21044;-37
2022/04/20 07:26:00;;;;;;;3.58;2.67;;;;;;;5.07;86.76;98658.99;1705051;84;21048;-36
2022/04/20 07:28:25;;;;;;;5.22;3.20;;;;;;;5.05;87.42;98657.38;1712450;84;20991;-37
2022/04/20 07:30:51;;;;;;;3.70;2.67;;;;;;;5.07;87.90;98658.99;1712516;84;21011;-38
2022/04/20 07:33:17;;;;;;;4.85;3.15;;;;;;;5.03;88.13;98651.39;1712493;84;20996;-38
2022/04/20 07:35:47;;;;;;;9.58;3.90;;;;;;;5.02;88.61;98653.59;1712485;84;21003;-37
2022/04/20 07:38:13;;;;;;;4.65;3.37;;;;;;;5.07;88.24;98651.64;1712526;84;21011;-38
2022/04/20 07:40:39;;;;;;;4.10;2.92;;;;;;;5.10;87.81;98648.45;1712575;84;21504;-39
2022/04/20 07:43:05;;;;;;;5.60;2.95;;;;;;;5.16;87.15;98643.42;1712420;83;21494;-39
2022/04/20 07:45:31;;;;;;;4.85;3.33;;;;;;;5.12;87.47;98639.27;1712475;84;21007;-39
2022/04/20 07:47:57;;;;;;;4.17;2.80;;;;;;;5.18;87.70;98645.50;1712465;84;21000;-39
2022/04/20 07:50:25;;;;;;;4.00;2.50;;;;;;;5.18;87.37;98633.77;1712819;84;21019;-37
2022/04/20 07:52:56;;;;;;;2.92;2.67;;;;;;;5.24;86.78;98640.04;1712703;84;21051;-38
2022/04/20 07:55:28;;;;;;;2.75;2.30;;;;;;;5.35;85.60;98636.49;1712666;84;21015;-39
2022/04/20 07:57:57;;;;;;;3.83;2.17;;;;;;;5.29;86.35;98639.35;1712488;84;20992;-37
2022/04/20 08:00:24;;;;;;;3.15;2.40;;;;;;;5.19;86.32;98645.91;1712437;84;21567;-37
2022/04/20 08:03:08;;;;;;;3.08;2.55;;;;;;;5.02;85.97;98631.44;1712694;84;21024;-38
2022/04/20 08:05:34;;;;;;;3.10;2.25;;;;;;;4.96;85.72;98632.56;1712532;84;20997;-36
2022/04/20 08:08:00;;;;;;;2.70;1.70;;;;;;;4.92;86.43;98625.33;1712463;84;21003;-37
2022/04/20 08:10:26;;;;;;;2.50;2.12;;;;;;;4.94;85.93;98621.36;1712483;84;21055;-38
2022/04/20 08:12:51;;;;;;;2.12;1.90;;;;;;;4.91;86.93;98627.56;1712488;84;21006;-38
2022/04/20 08:15:17;;;;;;;2.00;1.80;;;;;;;4.95;86.15;98616.55;1712583;84;21044;-36
2022/04/20 08:17:46;;;;;;;2.40;2.08;;;;;;;4.81;87.66;98620.57;1712536;84;21051;-39
2022/04/20 08:20:11;;;;;;;3.65;2.12;;;;;;;4.85;87.30;98616.55;1712543;84;21008;-38
2022/04/20 08:22:42;;;;;;;3.00;2.05;;;;;;;4.81;87.63;98617.12;1712420;84;21063;-37
2022/04/20 08:25:12;;;;;;;2.92;2.05;;;;;;;4.73;87.10;98618.77;1712477;84;21019;-36
2022/04/20 08:27:38;;;;;;;3.62;2.08;;;;;;;4.72;87.59;98625.34;1712056;84;21051;-38
2022/04/20 08:30:07;;;;;;;3.60;1.80;;;;;;;4.70;86.66;98621.49;1712491;84;20988;-37
2022/04/20 08:32:35;;;;;;;5.00;4.10;;;;;;;4.73;86.70;98626.58;1712491;84;21544;-37
2022/04/20 08:35:00;;;;;;;3.10;2.55;;;;;;;4.71;87.17;98628.84;1712615;84;21011;-38
2022/04/20 08:37:26;;;;;;;4.47;3.10;;;;;;;4.67;87.35;98630.72;1712469;84;20992;-39
2022/04/20 08:39:52;;;;;;;4.50;3.25;;;;;;;4.75;87.14;98623.45;1712446;84;21019;-37
2022/04/20 08:42:20;;;;;;;2.80;1.87;;;;;;;4.89;86.74;98628.05;1712548;84;21008;-37
2022/04/20 08:44:51;;;;;;;4.50;1.98;;;;;;;4.97;86.17;98623.84;1700493;84;21068;-37
2022/04/20 08:47:22;;;;;;;2.37;2.10;;;;;;;4.93;86.56;98619.22;1721422;83;20980;-38
2022/04/20 08:49:52;;;;;;;3.22;2.08;;;;;;;4.94;86.04;98616.98;1760083;81;20986;-38
2022/04/20 08:52:37;;;;;;;3.37;2.25;;;;;;;4.98;85.98;98610.75;1721408;82;21487;-39
2022/04/20 08:55:07;;;;;;;3.15;2.08;;;;;;;5.10;87.13;98618.94;1760133;81;20999;-39
2022/04/20 08:57:34;;;;;;;2.70;2.33;;;;;;;5.14;86.59;98609.60;1721069;83;20991;-37
2022/04/20 09:00:01;;;;;;;;;;;;;;;5.30;85.71;98611.08;1762919;81;21551;-35
2022/04/20 09:02:28;;;;;;;2.37;1.55;;;;;;;5.34;86.07;98603.50;1760295;81;20104;-36
2022/04/20 09:04:56;;;;;;;1.52;1.42;;;;;;;5.31;85.76;98616.70;1721555;82;21449;-37
2022/04/20 09:07:22;;;;;;;2.55;1.70;;;;;;;5.41;84.61;98618.89;1760112;81;21046;-36
2022/04/20 09:09:49;;;;;;;2.70;1.95;;;;;;;5.31;84.78;98618.43;1721758;83;21034;-36
2022/04/20 09:12:18;;;;;;;2.85;2.10;;;;;;;5.22;85.04;98613.20;1760521;81;21536;-37
2022/04/20 09:14:50;;;;;;;1.60;1.50;;;;;;;5.30;84.91;98598.05;1760088;80;20995;-39
2022/04/20 09:17:19;;;;;;;2.55;1.80;;;;;;;5.36;85.55;98600.36;1721475;83;21010;-38
2022/04/20 09:19:51;;;;;;;1.98;1.77;;;;;;;5.53;84.33;98601.36;1760026;81;20995;-38
2022/04/20 09:22:29;;;;;;;1.95;1.77;;;;;;;5.55;84.00;98603.00;1759643;81;21488;-40
2022/04/20 09:25:11;;;;;;;2.05;1.80;;;;;;;5.48;84.67;98592.45;1760062;80;21007;-37
2022/04/20 09:27:40;;;;;;;2.47;2.27;;;;;;;5.80;84.99;98587.49;1760052;80;20987;-37
2022/04/20 09:30:16;;;;;;;2.12;1.92;;;;;;;6.12;85.04;98580.77;1759976;80;21481;-37
2022/04/20 09:32:47;;;;;;;5.67;3.02;;;;;;;6.43;84.70;98585.80;1721401;83;20979;-37
2022/04/20 09:35:18;;;;;;;3.67;3.33;;;;;;;6.55;83.52;98583.05;1760121;80;21468;-37
2022/04/20 09:37:45;;;;;;;3.08;2.17;;;;;;;6.70;82.89;98589.27;1736940;80;20959;-38
2022/04/20 09:40:16;;;;;;;4.10;2.60;;;;;;;6.76;81.83;98579.80;1759454;81;21044;-36
2022/04/20 09:43:06;;;;;;;2.47;2.15;;;;;;;6.80;82.15;98583.94;1758691;80;21017;-36
2022/04/20 09:45:34;;;;;;;3.40;2.20;;;;;;;6.95;81.37;98584.07;1760049;80;21588;-36
2022/04/20 09:51:16;;;;;;;5.70;3.65;;;;;;;6.80;80.49;98589.16;1747668;81;21040;-37
2022/04/20 09:53:48;;;;;;;7.97;3.27;;;;;;;6.87;80.76;98597.55;1727905;83;21018;-38
2022/04/20 09:56:23;;;;;;;7.72;2.00;;;;;;;6.79;80.84;98598.41;1728738;83;21038;-39
2022/04/20 09:59:03;;;;;;;3.02;2.17;;;;;;;6.70;80.22;98597.11;1729916;83;20970;-35
2022/04/20 10:01:35;;;;;;;2.20;2.00;;;;;;;6.60;80.86;98605.01;1729215;83;21010;-37
2022/04/20 10:04:06;;;;;;;5.30;2.80;;;;;;;6.57;82.09;98594.27;1729380;81;21547;-37
2022/04/20 10:06:34;;;;;;;3.00;2.65;;;;;;;6.62;81.82;98597.94;1729000;81;21030;-39
2022/04/20 10:09:00;;;;;;;5.08;3.33;;;;;;;6.53;81.34;98601.84;1729954;83;20999;-35
2022/04/20 10:11:27;;;;;;;7.40;2.92;;;;;;;6.60;81.60;98601.92;1728857;83;21065;-37
2022/04/20 10:16:24;;;;;;;3.33;2.77;;;;;;;6.51;81.11;98612.84;1692429;81;21597;-38
2022/04/20 10:18:52;;;;;;;4.28;3.42;;;;;;;6.46;81.60;98607.86;1729258;82;21077;-38
2022/04/20 10:21:21;;;;;;;4.28;3.10;;;;;;;6.43;81.93;98608.47;1737561;81;21038;-38
2022/04/20 10:23:50;;;;;;;3.92;3.08;;;;;;;6.35;82.50;98614.08;1749972;82;21029;-39
2022/04/20 10:26:17;;;;;;;5.22;3.60;;;;;;;6.39;82.54;98611.69;1748589;82;21081;-40
2022/04/20 10:29:23;;;;;;;3.85;3.20;;;;;;;6.39;82.21;98612.16;1749990;80;20986;-39
2022/04/20 10:32:22;;;;;;;7.15;4.45;;;;;;;6.41;82.68;98607.23;1749696;80;21116;-38
2022/04/20 10:34:45;;;;;;;4.42;3.67;;;;;;;6.43;83.31;98598.86;1733203;80;21058;-37
2022/04/20 10:37:20;;;;;;;6.72;4.08;;;;;;;6.50;82.72;98592.41;1749959;82;21022;-36
2022/04/20 10:39:47;;;;;;;8.40;4.97;;;;;;;6.58;82.03;98589.88;1749912;80;21030;-36
2022/04/20 10:42:20;;;;;;;4.37;3.52;;;;;;;6.64;81.80;98584.33;1750189;82;20982;-38
2022/04/20 10:45:04;;;;;;;8.40;4.30;;;;;;;6.65;82.67;98583.42;1766131;81;21102;-36
2022/04/20 10:47:35;;;;;;;10.65;6.60;;;;;;;6.69;81.96;98581.89;1775699;81;21015;-37
2022/04/20 10:50:28;;;;;;;9.30;5.00;;;;;;;6.71;82.58;98588.33;1775392;80;21034;-39
2022/04/20 10:53:04;;;;;;;5.17;3.83;;;;;;;6.79;82.32;98590.58;1760619;80;21563;-42
2022/04/20 10:55:36;;;;;;;6.75;3.67;;;;;;;6.90;82.31;98591.70;1775625;81;21111;-37
2022/04/20 10:58:17;;;;;;;5.35;3.20;;;;;;;6.99;82.65;98592.16;1774956;81;20999;-35
2022/04/20 11:00:44;;;;;;;3.72;2.77;;;;;;;7.05;82.04;98584.83;1774469;80;21571;-39
2022/04/20 11:03:12;;;;;;;3.10;2.42;;;;;;;7.17;81.72;98599.48;1775296;79;21062;-37
2022/04/20 11:05:53;;;;;;;10.72;6.55;;;;;;;7.17;81.19;98588.58;1784951;80;21086;-36
2022/04/20 11:08:20;;;;;;;5.62;3.70;;;;;;;7.19;80.65;98596.35;1785745;80;20986;-38
2022/04/20 11:19:49;;;;;;;3.87;3.02;;;;;;;7.04;81.42;98590.13;1786158;80;21026;-38
2022/04/20 11:22:15;;;;;;;13.08;8.13;;;;;;;7.02;80.58;98591.54;1785928;80;21881;-37
2022/04/20 11:24:42;;;;;;;3.30;3.00;;;;;;;7.03;80.94;98589.77;1785873;80;20967;-33
2022/04/20 11:27:08;;;;;;;3.93;3.10;;;;;;;6.97;81.13;98596.59;1786044;80;20989;-34
2022/04/20 11:29:35;;;;;;;2.75;2.20;;;;;;;6.98;80.80;98592.60;1785924;80;20967;-35
2022/04/20 11:32:07;;;;;;;3.70;3.07;;;;;;;7.02;80.23;98598.52;1786073;80;21061;-37
2022/04/20 11:34:35;;;;;;;4.25;2.90;;;;;;;7.01;80.48;98594.23;1784811;80;21082;-39
2022/04/20 11:37:07;;;;;;;6.70;4.95;;;;;;;7.00;80.76;98597.75;1786044;80;21460;-46
2022/04/20 11:39:34;;;;;;;6.05;2.70;;;;;;;7.00;81.73;98599.06;1785895;80;20995;-46
2022/04/20 11:42:03;;;;;;;5.95;3.58;;;;;;;7.03;81.09;98597.61;1785442;80;21004;-47
2022/04/20 11:44:42;;;;;;;3.85;3.12;;;;;;;7.01;81.29;98592.45;1785618;80;21043;-38
2022/04/20 11:47:10;;;;;;;2.45;2.25;;;;;;;7.01;80.91;98590.30;1786005;80;21170;-36
2022/04/20 11:49:48;;;;;;;9.68;6.20;;;;;;;6.86;81.60;98591.95;1785589;80;21038;-38
2022/04/20 11:52:17;;;;;;;5.08;3.08;;;;;;;6.88;81.51;98598.78;1785871;80;20972;-37
2022/04/20 11:54:48;;;;;;;4.92;3.72;;;;;;;6.95;81.58;98596.70;1785982;80;21039;-37
2022/04/20 11:57:16;;;;;;;14.58;8.60;;;;;;;6.87;82.04;98605.38;1785868;80;20983;-38
2022/04/20 11:59:51;;;;;;;6.85;3.98;;;;;;;6.89;82.05;98606.14;1786149;80;21034;-38
2022/04/20 12:02:20;;;;;;;4.40;3.40;;;;;;;6.90;81.69;98598.70;1785771;80;21085;-36
2022/04/20 12:04:46;;;;;;;6.28;4.10;;;;;;;6.94;81.25;98598.92;1785952;80;21002;-39
2022/04/20 12:07:16;;;;;;;4.30;3.02;;;;;;;6.96;81.44;98587.08;1785724;80;21634;-36
2022/04/20 12:09:45;;;;;;;4.28;2.52;;;;;;;6.99;81.56;98593.47;1785952;80;21010;-36
2022/04/20 12:12:12;;;;;;;3.55;2.98;;;;;;;6.97;81.56;98587.45;1785509;80;21006;-35
2022/04/20 12:14:39;;;;;;;;;;;;;;;7.02;81.98;98594.59;1788740;80;20990;-37
2022/04/20 12:17:10;;;;;;;4.92;3.70;;;;;;;7.01;81.75;98590.30;1786114;80;20108;-37
2022/04/20 12:19:37;;;;;;;3.70;3.27;;;;;;;7.00;82.41;98587.30;1785113;80;21007;-37
2022/04/20 12:22:07;;;;;;;4.33;3.60;;;;;;;6.99;82.86;98588.23;1757025;80;21002;-36
2022/04/20 12:24:33;;;;;;;4.20;3.20;;;;;;;7.03;82.30;98587.98;1785349;80;21456;-39
2022/04/20 12:27:00;;;;;;;3.45;3.00;;;;;;;7.04;81.49;98597.53;1784747;80;21625;-38
2022/04/20 12:29:31;;;;;;;7.80;4.40;;;;;;;7.00;81.97;98593.36;1785731;80;21038;-37
2022/04/20 12:31:57;;;;;;;7.15;3.45;;;;;;;6.85;82.36;98593.70;1784917;80;21030;-36
2022/04/20 12:34:28;;;;;;;4.78;3.42;;;;;;;6.86;83.04;98590.64;1784991;80;20991;-39
2022/04/20 12:37:03;;;;;;;4.47;3.70;;;;;;;6.88;83.40;98590.94;1785892;80;21002;-38
2022/04/20 12:39:39;;;;;;;5.53;3.30;;;;;;;6.90;83.56;98589.08;1785564;80;21456;-39
2022/04/20 12:42:10;;;;;;;4.55;3.05;;;;;;;6.94;82.77;98599.39;1784835;80;21528;-37
2022/04/20 12:45:02;;;;;;;3.62;3.27;;;;;;;6.97;82.34;98600.52;1785731;80;21063;-37
2022/04/20 12:47:30;;;;;;;8.05;4.28;;;;;;;6.95;82.03;98607.16;1785489;80;21022;-39
2022/04/20 12:50:05;;;;;;;5.45;3.60;;;;;;;6.93;83.16;98610.31;1783931;80;21034;-38
2022/04/20 12:52:32;;;;;;;6.60;4.00;;;;;;;6.89;82.69;98608.32;1784717;80;20999;-38
2022/04/20 12:55:09;;;;;;;6.97;4.40;;;;;;;6.89;83.15;98612.24;1784426;80;21034;-37
2022/04/20 13:03:16;;;;;;;4.20;3.25;;;;;;;6.96;82.01;98605.38;1785261;80;21641;-37
2022/04/20 13:05:44;;;;;;;4.75;3.62;;;;;;;6.89;82.14;98603.09;1785459;80;21026;-38
2022/04/20 13:08:13;;;;;;;6.00;3.37;;;;;;;6.85;82.11;98600.70;1784768;80;21034;-37
2022/04/20 13:10:42;;;;;;;5.22;4.10;;;;;;;6.89;82.13;98603.09;1784434;80;21026;-38
2022/04/20 13:13:09;;;;;;;6.22;4.30;;;;;;;6.81;82.72;98607.85;1784623;80;21049;-40
2022/04/20 13:15:35;;;;;;;10.38;5.65;;;;;;;6.85;82.81;98605.45;1785980;80;21034;-37
2022/04/20 13:18:01;;;;;;;6.85;4.37;;;;;;;6.85;82.81;98605.45;1784889;80;21054;-37
2022/04/20 13:20:29;;;;;;;10.23;5.45;;;;;;;6.91;83.09;98616.05;1785922;80;20990;-41
2022/04/20 13:22:56;;;;;;;15.20;8.63;;;;;;;6.88;83.33;98611.84;1785790;80;20971;-37
2022/04/20 13:28:06;;;;;;;4.72;3.67;;;;;;;6.90;83.87;98619.14;1785946;80;21488;-37
2022/04/20 13:30:38;;;;;;;7.03;4.67;;;;;;;6.91;84.28;98618.67;1785717;80;21062;-36
2022/04/20 13:33:06;;;;;;;4.25;3.60;;;;;;;6.92;83.51;98618.59;1785769;80;20993;-37
2022/04/20 13:35:34;;;;;;;12.78;7.62;;;;;;;6.86;82.92;98612.86;1785674;80;21030;-38
2022/04/20 13:38:02;;;;;;;7.72;5.03;;;;;;;6.87;83.19;98607.52;1785993;80;20972;-37
2022/04/20 13:40:28;;;;;;;5.65;4.65;;;;;;;6.80;84.49;98607.45;1785334;80;21476;-38
2022/04/20 13:42:56;;;;;;;8.55;4.87;;;;;;;6.86;83.62;98605.02;1785987;80;20983;-38
2022/04/20 13:45:23;;;;;;;5.60;4.03;;;;;;;6.91;83.35;98603.86;1787176;80;21019;-42
2022/04/20 13:47:50;;;;;;;7.10;4.15;;;;;;;6.88;84.77;98607.09;1788738;80;21018;-38
2022/04/20 13:50:16;;;;;;;5.53;4.50;;;;;;;6.91;84.38;98611.70;1789043;80;20959;-39
2022/04/20 13:52:42;;;;;;;8.98;4.70;;;;;;;6.96;84.10;98612.75;1788778;80;21010;-37
2022/04/20 13:55:09;;;;;;;5.85;4.80;;;;;;;6.94;84.79;98611.16;1788854;80;21010;-39
2022/04/20 13:57:36;;;;;;;7.17;5.12;;;;;;;6.98;84.91;98616.13;1787869;80;21499;-40
2022/04/20 14:00:06;;;;;;;5.65;4.85;;;;;;;6.98;85.17;98612.20;1789212;80;21037;-36
2022/04/20 14:02:33;;;;;;;5.67;4.50;;;;;;;7.04;85.79;98614.97;1762436;80;20963;-37
2022/04/20 14:04:59;;;;;;;7.15;4.40;;;;;;;7.09;84.64;98615.58;1787481;80;21190;-37
2022/04/20 14:07:25;;;;;;;8.58;5.08;;;;;;;7.09;84.25;98615.14;1788685;80;21042;-38
2022/04/20 14:09:50;;;;;;;5.42;4.80;;;;;;;7.08;85.27;98616.52;1788070;80;21056;-39
2022/04/20 14:12:18;;;;;;;7.28;5.20;;;;;;;7.05;85.39;98624.52;1787297;80;21040;-38
2022/04/20 14:14:44;;;;;;;9.08;5.55;;;;;;;7.04;85.19;98624.11;1788802;80;20994;-38
2022/04/20 14:17:11;;;;;;;9.17;5.50;;;;;;;7.06;85.62;98623.59;1785077;80;21045;-37
2022/04/20 14:19:43;;;;;;;7.08;5.08;;;;;;;7.07;85.81;98631.81;1786960;80;20982;-38
2022/04/20 14:22:09;;;;;;;9.10;5.65;;;;;;;7.02;85.54;98628.58;1786777;80;21121;-36
2022/04/20 14:24:36;;;;;;;9.68;5.33;;;;;;;7.02;85.04;98636.42;1786877;80;21041;-37
2022/04/20 14:32:15;;;;;;;8.00;5.97;;;;;;;6.95;85.82;98636.35;1788385;80;21489;-38
2022/04/20 14:37:29;;;;;;;8.48;5.65;;;;;;;6.93;86.31;98632.53;1856350;77;22936;-37
2022/04/20 14:39:57;;;;;;;7.72;5.58;;;;;;;6.94;85.58;98635.98;1828167;78;21061;-37
2022/04/20 14:42:22;;;;;;;;;;;;;;;6.89;86.27;98638.38;1817798;78;21022;-38
2022/04/20 14:44:48;;;;;;;8.08;6.40;;;;;;;6.91;85.54;98636.97;1820755;78;20102;-37
2022/04/20 14:47:13;;;;;;;11.03;6.55;;;;;;;6.83;86.09;98637.83;1829449;78;21479;-38
2022/04/20 14:49:41;;;;;;;12.63;6.58;;;;;;;6.86;85.67;98638.52;1829410;78;21507;-38
2022/04/20 14:52:14;;;;;;;7.55;6.75;;;;;;;6.85;85.77;98631.59;1829347;78;21111;-37
2022/04/20 14:54:43;;;;;;;9.00;6.92;;;;;;;6.80;86.79;98641.90;1828862;78;20983;-36
2022/04/20 14:57:09;;;;;;;9.05;7.15;;;;;;;6.82;86.36;98637.00;1829231;78;20990;-37
2022/04/20 14:59:35;;;;;;;14.15;10.03;;;;;;;6.87;85.88;98650.66;1829609;78;20982;-36
2022/04/20 15:02:02;;;;;;;11.05;8.73;;;;;;;6.87;86.08;98654.57;1829358;78;20971;-36
2022/04/20 15:04:29;;;;;;;13.80;8.40;;;;;;;6.84;87.37;98653.88;1829502;78;20982;-37
2022/04/20 15:06:56;;;;;;;12.35;8.48;;;;;;;6.88;86.72;98653.66;1829470;78;21185;-36
2022/04/20 15:09:25;;;;;;;14.38;9.20;;;;;;;6.84;87.95;98654.75;1829635;78;20989;-37
2022/04/20 15:11:52;;;;;;;15.13;9.05;;;;;;;6.91;86.81;98654.83;1797982;78;21511;-37
2022/04/20 15:14:19;;;;;;;13.53;8.28;;;;;;;6.89;87.61;98654.06;1829614;78;20995;-37